Time;durP1;ratioP1;P1;durP2;ratioP2;P2;SDS_P1;SDS_P2;PMS_P1;PMS_P2;Temp;Humidity;BMP_temperature;BMP_pressure;BME280_temperature;BME280_humidity;BME280_pressure;Samples;Min_cycle;Max_cycle;Signal;HPM_P1;HPM_P2
2023/11/29 00:00:10;;;;;;;7.00;3.40;;;;;;;5.28;100.00;99712.23;105574;1267;71072;-80
2023/11/29 00:02:40;;;;;;;10.30;4.60;;;;;;;5.30;100.00;99709.69;105656;1264;63772;-80
2023/11/29 00:05:11;;;;;;;5.10;3.20;;;;;;;5.31;100.00;99704.45;106554;1260;71687;-79
2023/11/29 00:07:45;;;;;;;8.80;3.30;;;;;;;5.31;100.00;99694.19;107221;1262;59936;-80
2023/11/29 00:10:13;;;;;;;;;;;;;;;5.33;100.00;99691.65;105675;1261;59698;-81
2023/11/29 00:12:40;;;;;;;7.30;3.00;;;;;;;5.35;100.00;99695.39;105345;1261;73047;-78
2023/11/29 00:15:10;;;;;;;8.20;3.20;;;;;;;5.37;100.00;99691.27;105296;1262;64185;-78
2023/11/29 00:17:37;;;;;;;7.60;4.10;;;;;;;5.39;100.00;99685.66;105394;1264;73351;-79
2023/11/29 00:20:05;;;;;;;7.70;3.30;;;;;;;5.40;100.00;99690.59;105682;1260;60930;-78
2023/11/29 00:22:33;;;;;;;8.70;3.50;;;;;;;5.42;100.00;99688.08;105877;1257;60809;-79
2023/11/29 00:25:00;;;;;;;11.00;4.30;;;;;;;5.43;100.00;99692.20;105660;1260;73094;-77
2023/11/29 00:27:27;;;;;;;8.70;3.80;;;;;;;5.44;100.00;99685.93;105739;1260;64052;-77
2023/11/29 00:29:54;;;;;;;8.70;3.70;;;;;;;5.45;100.00;99681.86;105710;1255;71225;-77
2023/11/29 00:32:21;;;;;;;9.90;4.10;;;;;;;5.45;100.00;99685.84;105771;1260;60985;-79
2023/11/29 00:34:49;;;;;;;8.80;4.00;;;;;;;5.45;100.00;99679.27;105780;1257;60262;-77
2023/11/29 00:37:16;;;;;;;7.70;4.20;;;;;;;5.44;100.00;99680.31;105723;1260;73122;-78
2023/11/29 00:39:43;;;;;;;8.90;3.70;;;;;;;5.45;100.00;99664.87;105750;1258;63862;-78
2023/11/29 00:42:10;;;;;;;8.70;5.30;;;;;;;5.45;100.00;99666.25;105959;1256;71693;-79
2023/11/29 00:44:37;;;;;;;10.60;4.70;;;;;;;5.46;100.00;99658.60;105909;1256;61632;-78
2023/11/29 00:47:04;;;;;;;15.40;4.50;;;;;;;5.48;100.00;99652.26;105837;1252;61095;-80
2023/11/29 00:49:32;;;;;;;7.80;3.90;;;;;;;5.49;100.00;99640.02;106391;1253;73103;-77
2023/11/29 00:51:59;;;;;;;10.10;4.50;;;;;;;5.52;100.00;99649.58;106162;1257;62457;-77
2023/11/29 00:54:26;;;;;;;11.40;4.60;;;;;;;5.53;100.00;99653.84;105962;1256;72414;-79
2023/11/29 00:56:54;;;;;;;12.30;5.80;;;;;;;5.55;100.00;99650.79;105906;1256;61222;-77
2023/11/29 00:59:21;;;;;;;11.10;5.40;;;;;;;5.58;100.00;99651.13;105898;1258;60348;-79
2023/11/29 01:01:48;;;;;;;9.70;4.80;;;;;;;5.60;100.00;99640.43;105800;1258;72030;-78
2023/11/29 01:04:16;;;;;;;11.80;5.20;;;;;;;5.63;100.00;99641.00;105785;1256;63682;-79
2023/11/29 01:06:42;;;;;;;8.90;4.70;;;;;;;5.66;100.00;99638.23;105910;1257;72540;-79
2023/11/29 01:09:10;;;;;;;10.20;5.00;;;;;;;5.68;100.00;99629.44;105932;1262;62359;-77
2023/11/29 01:11:37;;;;;;;5.40;3.90;;;;;;;5.72;100.00;99628.50;105912;1251;59822;-83
2023/11/29 01:14:04;;;;;;;7.30;4.10;;;;;;;5.75;100.00;99622.11;105915;1251;73108;-81
2023/11/29 01:16:31;;;;;;;8.50;4.80;;;;;;;5.79;100.00;99616.34;105915;1257;63645;-79
2023/11/29 01:18:59;;;;;;;8.50;3.80;;;;;;;5.83;100.00;99610.77;105763;1257;71186;-79
2023/11/29 01:21:27;;;;;;;7.80;4.50;;;;;;;5.85;100.00;99611.14;105825;1257;61066;-78
2023/11/29 01:24:02;;;;;;;6.90;3.50;;;;;;;5.88;100.00;99611.15;105879;1258;60347;-81
2023/11/29 01:26:29;;;;;;;8.40;4.20;;;;;;;5.91;100.00;99613.06;106004;1251;73175;-79
2023/11/29 01:28:57;;;;;;;10.40;3.70;;;;;;;5.93;100.00;99608.61;106021;1257;61264;-79
2023/11/29 01:31:26;;;;;;;8.20;3.90;;;;;;;5.95;100.00;99607.15;105933;1257;72486;-83
2023/11/29 01:33:53;;;;;;;10.40;5.30;;;;;;;5.96;100.00;99606.92;105791;1257;60982;-81
2023/11/29 01:36:21;;;;;;;7.20;3.20;;;;;;;5.97;100.00;99604.09;105836;1266;59642;-80
2023/11/29 01:38:48;;;;;;;4.80;2.80;;;;;;;5.97;100.00;99596.45;106163;1251;72916;-78
2023/11/29 01:41:16;;;;;;;10.60;3.40;;;;;;;5.97;100.00;99588.66;105991;1256;63906;-80
2023/11/29 01:43:43;;;;;;;10.30;3.60;;;;;;;5.96;100.00;99585.59;106004;1251;72370;-80
2023/11/29 01:46:11;;;;;;;8.80;3.20;;;;;;;5.95;100.00;99584.59;105934;1258;62460;-82
2023/11/29 01:48:39;;;;;;;6.40;3.20;;;;;;;5.94;100.00;99581.01;106157;1255;59729;-79
2023/11/29 01:51:06;;;;;;;6.80;4.00;;;;;;;5.92;100.00;99575.02;107064;1251;73017;-78
2023/11/29 01:53:33;;;;;;;16.30;4.20;;;;;;;5.92;100.00;99573.98;106673;1251;62594;-76
2023/11/29 01:56:04;;;;;;;10.10;3.20;;;;;;;5.92;100.00;99568.45;106285;1257;71704;-81
2023/11/29 01:58:31;;;;;;;8.00;3.60;;;;;;;5.90;100.00;99556.56;105921;1257;61048;-80
2023/11/29 02:00:59;;;;;;;4.80;3.50;;;;;;;5.89;100.00;99554.22;105985;1257;60406;-81
2023/11/29 02:03:27;;;;;;;8.60;3.80;;;;;;;5.87;100.00;99554.35;106365;1255;72974;-82
2023/11/29 02:05:55;;;;;;;6.80;3.60;;;;;;;5.84;100.00;99545.63;106262;1258;63078;-80
2023/11/29 02:08:21;;;;;;;11.50;3.70;;;;;;;5.82;100.00;99546.63;107653;1254;70912;-78
2023/11/29 02:10:50;;;;;;;8.40;3.90;;;;;;;5.81;100.00;99540.45;107761;1250;59621;-79
2023/11/29 02:13:18;;;;;;;9.40;4.50;;;;;;;5.79;100.00;99536.02;106724;1251;60379;-80
2023/11/29 02:15:46;;;;;;;10.10;4.00;;;;;;;5.78;100.00;99528.82;105832;1256;73060;-80
2023/11/29 02:18:15;;;;;;;8.50;3.80;;;;;;;5.76;100.00;99521.14;106079;1254;63726;-76
2023/11/29 02:20:42;;;;;;;10.50;4.30;;;;;;;5.74;100.00;99520.02;105935;1264;72561;-80
2023/11/29 02:23:36;;;;;;;12.20;4.80;;;;;;;5.73;100.00;99517.34;105923;1252;59733;-80
2023/11/29 02:26:02;;;;;;;8.80;5.20;;;;;;;5.70;100.00;99515.05;106392;1251;60289;-79
2023/11/29 02:28:29;;;;;;;8.50;4.80;;;;;;;5.68;100.00;99516.22;106405;1254;72980;-79
2023/11/29 02:30:56;;;;;;;8.60;4.40;;;;;;;5.65;100.00;99507.03;106359;1254;62401;-76
2023/11/29 02:33:23;;;;;;;7.30;4.30;;;;;;;5.63;100.00;99496.92;105960;1257;72324;-78
2023/11/29 02:35:50;;;;;;;9.70;6.20;;;;;;;5.60;100.00;99485.95;106174;1255;61221;-78
2023/11/29 02:38:18;;;;;;;13.30;4.70;;;;;;;5.58;100.00;99481.73;105960;1251;60295;-78
2023/11/29 02:40:45;;;;;;;7.50;3.80;;;;;;;5.56;100.00;99473.88;105948;1255;72813;-74
2023/11/29 02:43:12;;;;;;;7.70;3.70;;;;;;;5.55;100.00;99458.17;105858;1251;62390;-77
2023/11/29 02:45:40;;;;;;;8.60;4.20;;;;;;;5.54;100.00;99451.33;106020;1254;72512;-79
2023/11/29 02:48:06;;;;;;;5.80;3.80;;;;;;;5.52;100.00;99443.42;105853;1255;59727;-79
2023/11/29 02:50:34;;;;;;;9.00;4.00;;;;;;;5.51;100.00;99447.98;105878;1251;60119;-76
2023/11/29 02:53:01;;;;;;;5.30;3.50;;;;;;;5.51;100.00;99435.73;105967;1251;71618;-80
2023/11/29 02:55:28;;;;;;;11.30;4.80;;;;;;;5.51;100.00;99420.98;105952;1254;63913;-80
2023/11/29 02:57:56;;;;;;;6.20;3.80;;;;;;;5.52;100.00;99410.18;106646;1254;71546;-78
2023/11/29 03:00:24;;;;;;;7.80;3.80;;;;;;;5.53;100.00;99398.86;106876;1256;61120;-79
2023/11/29 03:02:52;;;;;;;5.60;4.10;;;;;;;5.53;100.00;99395.02;106328;1251;60105;-79
2023/11/29 03:05:19;;;;;;;8.80;5.10;;;;;;;5.55;100.00;99392.34;106031;1254;73004;-78
2023/11/29 03:07:47;;;;;;;10.40;5.00;;;;;;;5.57;100.00;99375.05;105969;1257;63761;-77
2023/11/29 03:10:14;;;;;;;10.10;5.40;;;;;;;5.59;100.00;99375.79;106057;1251;72697;-79
2023/11/29 03:12:40;;;;;;;9.10;6.10;;;;;;;5.60;100.00;99364.96;106029;1257;61052;-76
2023/11/29 03:15:09;;;;;;;10.40;5.30;;;;;;;5.61;100.00;99360.55;106167;1254;60147;-77
2023/11/29 03:17:36;;;;;;;15.50;7.40;;;;;;;5.62;100.00;99351.50;106187;1254;72745;-79
2023/11/29 03:20:04;;;;;;;13.60;6.60;;;;;;;5.64;100.00;99353.98;105979;1252;62357;-77
2023/11/29 03:22:31;;;;;;;12.50;6.60;;;;;;;5.64;100.00;99347.21;105988;1251;71464;-77
2023/11/29 03:24:59;;;;;;;11.60;7.90;;;;;;;5.67;100.00;99337.35;106137;1254;59928;-79
2023/11/29 03:27:26;;;;;;;11.20;7.80;;;;;;;5.69;100.00;99332.90;106013;1254;59618;-80
2023/11/29 03:29:53;;;;;;;10.70;5.50;;;;;;;5.71;100.00;99334.88;105850;1252;73143;-79
2023/11/29 03:32:20;;;;;;;9.40;5.70;;;;;;;5.72;100.00;99330.25;106003;1254;63691;-79
2023/11/29 03:34:47;;;;;;;9.80;6.10;;;;;;;5.74;100.00;99322.02;105927;1254;72442;-79
2023/11/29 03:37:15;;;;;;;10.90;6.20;;;;;;;5.75;100.00;99320.20;106058;1254;60571;-82
2023/11/29 03:39:41;;;;;;;13.40;5.20;;;;;;;5.76;100.00;99318.58;105979;1254;60695;-80
2023/11/29 03:42:09;;;;;;;7.60;5.40;;;;;;;5.78;100.00;99320.70;105959;1251;73706;-79
2023/11/29 03:44:36;;;;;;;12.60;5.20;;;;;;;5.80;100.00;99316.95;106318;1254;63830;-81
2023/11/29 03:47:04;;;;;;;12.70;5.40;;;;;;;5.81;100.00;99299.91;106156;1255;72728;-81
2023/11/29 03:49:31;;;;;;;10.70;5.30;;;;;;;5.81;100.00;99296.39;106137;1250;62601;-78
2023/11/29 03:51:59;;;;;;;9.60;5.10;;;;;;;5.82;100.00;99289.08;105994;1254;60985;-77
2023/11/29 03:54:26;;;;;;;9.70;4.00;;;;;;;5.83;100.00;99285.60;106033;1254;73829;-77
2023/11/29 03:56:55;;;;;;;6.00;4.10;;;;;;;5.84;100.00;99280.17;105985;1251;63961;-78
2023/11/29 03:59:22;;;;;;;8.10;4.10;;;;;;;5.84;100.00;99278.02;105985;1251;72559;-81
2023/11/29 04:01:49;;;;;;;6.70;3.80;;;;;;;5.86;100.00;99273.59;106029;1254;60539;-80
2023/11/29 04:04:16;;;;;;;6.90;4.00;;;;;;;5.88;100.00;99265.86;106167;1251;60418;-76
2023/11/29 04:06:44;;;;;;;8.60;3.90;;;;;;;5.88;100.00;99257.66;105977;1251;72888;-77
2023/11/29 04:09:11;;;;;;;9.90;4.00;;;;;;;5.91;100.00;99248.99;105778;1257;64020;-82
2023/11/29 04:11:38;;;;;;;6.50;4.00;;;;;;;5.92;100.00;99245.26;105861;1251;72747;-79
2023/11/29 04:14:08;;;;;;;9.10;4.60;;;;;;;5.94;100.00;99245.66;105754;1251;60961;-85
2023/11/29 04:16:35;;;;;;;7.70;4.00;;;;;;;5.95;100.00;99236.27;105997;1250;60351;-78
2023/11/29 04:19:02;;;;;;;7.30;3.80;;;;;;;5.98;100.00;99232.62;105939;1254;73881;-80
2023/11/29 04:21:34;;;;;;;5.80;3.70;;;;;;;5.99;100.00;99239.45;105947;1251;63909;-79
2023/11/29 04:24:01;;;;;;;10.50;4.30;;;;;;;6.01;100.00;99234.53;105969;1254;71203;-77
2023/11/29 04:26:32;;;;;;;10.60;4.70;;;;;;;6.01;100.00;99226.67;105706;1257;61273;-79
2023/11/29 04:29:00;;;;;;;10.40;4.60;;;;;;;6.02;100.00;99214.49;105608;1255;60362;-79
2023/11/29 04:31:30;;;;;;;8.40;3.80;;;;;;;6.03;100.00;99210.42;105684;1257;73954;-78
2023/11/29 04:33:58;;;;;;;9.20;4.70;;;;;;;6.04;100.00;99202.60;105928;1259;61822;-76
2023/11/29 04:36:25;;;;;;;6.40;3.90;;;;;;;6.05;100.00;99199.73;105696;1257;71286;-78
2023/11/29 04:38:54;;;;;;;5.90;4.10;;;;;;;6.05;100.00;99194.52;105795;1254;60482;-78
2023/11/29 04:41:22;;;;;;;9.20;4.20;;;;;;;6.06;100.00;99190.52;105761;1254;60740;-78
2023/11/29 04:43:49;;;;;;;8.50;4.40;;;;;;;6.05;100.00;99194.67;105745;1257;73650;-78
2023/11/29 04:46:16;;;;;;;13.60;6.30;;;;;;;6.05;100.00;99186.17;105715;1257;63837;-78
2023/11/29 04:48:44;;;;;;;6.20;3.80;;;;;;;6.06;100.00;99179.40;105720;1254;73233;-82
2023/11/29 04:51:11;;;;;;;7.90;4.30;;;;;;;6.06;100.00;99174.52;105878;1253;60928;-79
2023/11/29 04:53:39;;;;;;;10.50;3.70;;;;;;;6.07;100.00;99170.09;106124;1258;60764;-80
2023/11/29 04:56:07;;;;;;;6.90;3.30;;;;;;;6.09;100.00;99161.83;105875;1254;73747;-79
2023/11/29 04:58:39;;;;;;;9.20;3.90;;;;;;;6.11;100.00;99161.69;106033;1257;63531;-79
2023/11/29 05:01:08;;;;;;;10.20;4.00;;;;;;;6.14;100.00;99157.38;106018;1254;72477;-80
2023/11/29 05:03:36;;;;;;;11.60;4.30;;;;;;;6.16;100.00;99146.80;106067;1251;60417;-80
2023/11/29 05:06:09;;;;;;;7.80;3.50;;;;;;;6.19;100.00;99139.14;106043;1251;60427;-79
2023/11/29 05:08:37;;;;;;;8.40;4.40;;;;;;;6.21;100.00;99131.39;105989;1255;73787;-78
2023/11/29 05:11:04;;;;;;;6.20;3.30;;;;;;;6.23;100.00;99126.39;106020;1256;62503;-76
2023/11/29 05:13:31;;;;;;;11.00;4.20;;;;;;;6.26;100.00;99120.11;106120;1251;72709;-80
2023/11/29 05:16:00;;;;;;;6.90;3.80;;;;;;;6.28;100.00;99116.48;106411;1255;60485;-77
2023/11/29 05:18:27;;;;;;;9.60;4.50;;;;;;;6.30;100.00;99108.74;106055;1252;60536;-78
2023/11/29 05:20:54;;;;;;;9.50;4.80;;;;;;;6.32;100.00;99112.80;106041;1251;73118;-77
2023/11/29 05:23:23;;;;;;;8.50;4.60;;;;;;;6.33;100.00;99097.45;105974;1254;63930;-77
2023/11/29 05:25:52;;;;;;;12.40;5.20;;;;;;;6.34;100.00;99095.84;105781;1260;73734;-79
2023/11/29 05:28:24;;;;;;;8.20;4.10;;;;;;;6.33;100.00;99090.52;106610;1254;60458;-79
2023/11/29 05:30:52;;;;;;;5.70;3.40;;;;;;;6.33;100.00;99092.59;108183;1257;60239;-78
2023/11/29 05:33:21;;;;;;;9.40;4.90;;;;;;;6.33;100.00;99081.67;106526;1251;73734;-78
2023/11/29 05:35:49;;;;;;;7.80;4.00;;;;;;;6.33;100.00;99084.95;106407;1252;62430;-79
2023/11/29 05:38:16;;;;;;;6.30;4.00;;;;;;;6.32;100.00;99082.06;106221;1251;71483;-77
2023/11/29 05:40:44;;;;;;;7.90;4.50;;;;;;;6.31;100.00;99081.93;106230;1251;60463;-78
2023/11/29 05:43:11;;;;;;;7.00;4.00;;;;;;;6.31;100.00;99076.03;106185;1250;60443;-81
2023/11/29 05:45:38;;;;;;;10.00;4.70;;;;;;;6.30;100.00;99067.23;106389;1251;73916;-78
2023/11/29 05:48:05;;;;;;;12.00;4.60;;;;;;;6.31;100.00;99065.50;108730;1250;62375;-76
2023/11/29 05:50:33;;;;;;;9.00;4.40;;;;;;;6.31;100.00;99065.27;107428;1251;72752;-77
2023/11/29 05:53:02;;;;;;;9.90;3.40;;;;;;;6.31;100.00;99048.48;107865;1251;61115;-77
2023/11/29 05:55:31;;;;;;;7.70;4.00;;;;;;;6.31;100.00;99052.94;106766;1254;60942;-80
2023/11/29 05:57:58;;;;;;;10.90;5.30;;;;;;;6.33;100.00;99055.23;106093;1251;72801;-78
2023/11/29 06:00:25;;;;;;;6.60;5.00;;;;;;;6.34;100.00;99048.28;106069;1251;63765;-77
2023/11/29 06:02:59;;;;;;;13.20;5.80;;;;;;;6.33;100.00;99052.80;106100;1252;72570;-79
2023/11/29 06:05:28;;;;;;;11.70;4.10;;;;;;;6.33;100.00;99033.73;106014;1251;60995;-79
2023/11/29 06:07:55;;;;;;;7.60;3.50;;;;;;;6.33;100.00;99037.89;106130;1251;61140;-79
2023/11/29 06:10:21;;;;;;;7.30;3.90;;;;;;;6.33;100.00;99040.64;106092;1251;73651;-78
2023/11/29 06:12:48;;;;;;;9.00;4.90;;;;;;;6.33;100.00;99040.50;105979;1254;62373;-78
2023/11/29 06:15:15;;;;;;;8.40;5.40;;;;;;;6.31;100.00;99032.84;106051;1251;72611;-77
2023/11/29 06:17:45;;;;;;;10.40;5.40;;;;;;;6.28;100.00;99032.84;106837;1251;60859;-80
2023/11/29 06:20:11;;;;;;;13.40;6.20;;;;;;;6.27;100.00;99029.11;106011;1254;60517;-79
2023/11/29 06:22:39;;;;;;;9.40;5.00;;;;;;;6.25;100.00;99028.17;105770;1251;73982;-78
2023/11/29 06:25:07;;;;;;;10.70;5.50;;;;;;;6.22;100.00;99019.20;105907;1254;63835;-78
2023/11/29 06:27:36;;;;;;;7.60;4.40;;;;;;;6.19;100.00;99016.65;106041;1251;72562;-79
2023/11/29 06:30:04;;;;;;;6.10;4.50;;;;;;;6.16;100.00;99005.39;106000;1254;60879;-79
2023/11/29 06:32:31;;;;;;;8.20;5.00;;;;;;;6.15;100.00;98999.70;106081;1254;60430;-78
2023/11/29 06:34:58;;;;;;;5.60;3.90;;;;;;;6.15;100.00;98984.64;105877;1251;73857;-79
2023/11/29 06:37:25;;;;;;;12.70;4.60;;;;;;;6.15;100.00;98987.60;105968;1250;62600;-80
2023/11/29 06:39:53;;;;;;;6.70;3.80;;;;;;;6.15;100.00;98989.15;106083;1250;72767;-80
2023/11/29 06:42:20;;;;;;;5.60;3.50;;;;;;;6.15;100.00;98973.19;106017;1254;60933;-81
2023/11/29 06:44:48;;;;;;;12.40;3.80;;;;;;;6.16;100.00;98971.55;105961;1251;60539;-77
2023/11/29 06:47:17;;;;;;;6.90;4.60;;;;;;;6.18;100.00;98972.09;106018;1251;72619;-80
2023/11/29 06:49:44;;;;;;;5.30;3.20;;;;;;;6.19;100.00;98959.53;105886;1254;62480;-80
2023/11/29 06:52:12;;;;;;;4.20;2.80;;;;;;;6.20;100.00;98965.01;105750;1254;71502;-77
2023/11/29 06:54:39;;;;;;;6.70;3.30;;;;;;;6.21;100.00;98957.16;105947;1255;61064;-79
2023/11/29 06:57:07;;;;;;;7.40;3.10;;;;;;;6.21;100.00;98949.68;105979;1254;60440;-80
2023/11/29 06:59:35;;;;;;;7.20;3.00;;;;;;;6.21;100.00;98943.56;105839;1251;73814;-80
2023/11/29 07:02:04;;;;;;;7.60;3.30;;;;;;;6.21;100.00;98945.48;105957;1251;62397;-79
2023/11/29 07:04:31;;;;;;;5.70;3.20;;;;;;;6.21;100.00;98936.80;105907;1251;72620;-80
2023/11/29 07:06:59;;;;;;;8.30;3.50;;;;;;;6.21;100.00;98941.69;105889;1254;61098;-81
2023/11/29 07:09:27;;;;;;;6.00;3.40;;;;;;;6.21;100.00;98932.34;106021;1251;62034;-81
2023/11/29 07:11:54;;;;;;;8.00;3.50;;;;;;;6.21;100.00;98928.20;106005;1251;73677;-80
2023/11/29 07:14:21;;;;;;;6.70;3.60;;;;;;;6.20;100.00;98938.31;105943;1254;62716;-80
2023/11/29 07:16:48;;;;;;;7.00;3.80;;;;;;;6.18;100.00;98927.70;106043;1253;70490;-80
2023/11/29 07:19:17;;;;;;;7.60;4.00;;;;;;;6.16;100.00;98930.09;106538;1251;60468;-77
2023/11/29 07:21:43;;;;;;;10.20;4.20;;;;;;;6.13;100.00;98922.81;106038;1254;60422;-80
2023/11/29 07:24:10;;;;;;;7.50;3.90;;;;;;;6.13;100.00;98922.11;106058;1256;72343;-79
2023/11/29 07:26:37;;;;;;;6.70;4.30;;;;;;;6.12;100.00;98921.31;105975;1254;63982;-79
2023/11/29 07:29:05;;;;;;;6.70;3.90;;;;;;;6.11;100.00;98912.05;105955;1251;72656;-78
2023/11/29 07:31:33;;;;;;;7.00;3.90;;;;;;;6.10;100.00;98913.70;105930;1255;60699;-80
2023/11/29 07:34:00;;;;;;;7.70;4.30;;;;;;;6.09;100.00;98906.11;105978;1254;60521;-80
2023/11/29 07:36:27;;;;;;;7.90;4.40;;;;;;;6.08;100.00;98896.13;106021;1250;73911;-82
2023/11/29 07:38:58;;;;;;;8.10;4.00;;;;;;;6.07;100.00;98892.05;105921;1254;63770;-81
2023/11/29 07:41:25;;;;;;;5.60;4.40;;;;;;;6.05;100.00;98892.17;105975;1251;71447;-82
2023/11/29 07:43:51;;;;;;;5.70;3.50;;;;;;;6.04;100.00;98892.21;105928;1251;60539;-80
2023/11/29 07:46:18;;;;;;;5.30;3.60;;;;;;;6.04;100.00;98889.08;106080;1254;60543;-81
2023/11/29 07:48:46;;;;;;;8.50;3.20;;;;;;;6.03;100.00;98881.20;106020;1254;73844;-79
2023/11/29 07:51:14;;;;;;;8.20;3.90;;;;;;;6.02;100.00;98891.30;105953;1254;63658;-84
2023/11/29 07:53:44;;;;;;;6.70;3.60;;;;;;;6.00;100.00;98897.30;105977;1251;72658;-84
2023/11/29 07:56:12;;;;;;;4.70;2.70;;;;;;;6.00;100.00;98886.59;105850;1256;60424;-80
2023/11/29 07:58:39;;;;;;;6.80;3.00;;;;;;;5.99;100.00;98897.45;105621;1250;60502;-82
2023/11/29 08:01:07;;;;;;;5.20;2.70;;;;;;;5.97;100.00;98900.63;106783;1252;73601;-80
2023/11/29 08:03:34;;;;;;;11.40;4.20;;;;;;;5.96;100.00;98884.95;105976;1251;62637;-81
2023/11/29 08:06:01;;;;;;;4.40;3.30;;;;;;;5.94;100.00;98897.24;106247;1254;72636;-81
2023/11/29 08:08:28;;;;;;;5.80;3.10;;;;;;;5.92;100.00;98882.48;106499;1254;61183;-83
2023/11/29 08:10:55;;;;;;;6.40;2.90;;;;;;;5.92;100.00;98895.65;106096;1254;60437;-84
2023/11/29 08:13:23;;;;;;;5.40;2.30;;;;;;;5.91;100.00;98883.86;106143;1254;73922;-79
2023/11/29 08:15:52;;;;;;;2.20;1.90;;;;;;;5.91;100.00;98880.44;106127;1254;63826;-78
2023/11/29 08:18:19;;;;;;;10.00;3.70;;;;;;;5.91;100.00;98873.34;106180;1254;71037;-83
2023/11/29 08:20:46;;;;;;;4.10;2.50;;;;;;;5.90;100.00;98865.20;105966;1254;60479;-80
2023/11/29 08:23:17;;;;;;;5.60;2.30;;;;;;;5.92;100.00;98858.52;106029;1250;60454;-79
2023/11/29 08:25:46;;;;;;;7.20;3.40;;;;;;;5.92;100.00;98856.73;106033;1254;72584;-81
2023/11/29 08:28:16;;;;;;;3.70;2.90;;;;;;;5.94;100.00;98853.15;106021;1251;63801;-80
2023/11/29 08:30:43;;;;;;;4.40;2.80;;;;;;;5.95;100.00;98851.89;106105;1254;73266;-79
2023/11/29 08:33:10;;;;;;;6.80;3.00;;;;;;;5.96;100.00;98849.21;106226;1254;61076;-81
2023/11/29 08:35:41;;;;;;;6.00;3.10;;;;;;;5.97;100.00;98849.54;105965;1251;60463;-82
2023/11/29 08:38:07;;;;;;;4.30;2.50;;;;;;;5.96;100.00;98832.73;106051;1254;73699;-77
2023/11/29 08:40:35;;;;;;;34.00;4.80;;;;;;;5.96;100.00;98826.48;106065;1254;63624;-81
2023/11/29 08:43:02;;;;;;;4.20;2.50;;;;;;;5.96;100.00;98826.15;106032;1251;73942;-81
2023/11/29 08:45:42;;;;;;;6.20;2.90;;;;;;;5.95;100.00;98828.30;106194;1251;61151;-78
2023/11/29 08:48:09;;;;;;;6.10;2.40;;;;;;;5.95;100.00;98827.98;106469;1251;61452;-79
2023/11/29 08:50:36;;;;;;;5.00;2.00;;;;;;;5.94;100.00;98824.23;106112;1251;73927;-78
2023/11/29 08:53:05;;;;;;;6.70;2.00;;;;;;;5.93;100.00;98819.42;105965;1254;63737;-79
2023/11/29 08:55:42;;;;;;;4.60;2.70;;;;;;;5.93;100.00;98810.58;105823;1251;73431;-79
2023/11/29 08:58:13;;;;;;;5.40;3.10;;;;;;;5.94;100.00;98808.79;105995;1255;61061;-76
2023/11/29 09:00:43;;;;;;;4.10;2.50;;;;;;;5.95;100.00;98808.87;105987;1251;60333;-80
2023/11/29 09:03:21;;;;;;;2.70;2.50;;;;;;;5.97;100.00;98801.97;106500;1251;73987;-79
2023/11/29 09:05:50;;;;;;;5.50;2.70;;;;;;;5.99;100.00;98794.19;106135;1251;63581;-79
2023/11/29 09:08:18;;;;;;;5.90;2.80;;;;;;;6.01;100.00;98789.73;106869;1250;72674;-77
2023/11/29 09:10:45;;;;;;;6.00;3.40;;;;;;;6.03;100.00;98788.92;108103;1251;61191;-82
2023/11/29 09:13:14;;;;;;;3.50;2.60;;;;;;;6.05;100.00;98795.92;106250;1254;60446;-78
2023/11/29 09:15:42;;;;;;;6.10;3.20;;;;;;;6.06;100.00;98790.48;106155;1251;73799;-77
2023/11/29 09:18:09;;;;;;;6.20;2.90;;;;;;;6.07;100.00;98792.79;105957;1254;65641;-78
2023/11/29 09:20:36;;;;;;;2.00;1.80;;;;;;;6.08;100.00;98784.89;105864;1257;72835;-77
2023/11/29 09:23:04;;;;;;;3.20;2.60;;;;;;;6.09;100.00;98766.77;106076;1254;60907;-76
2023/11/29 09:25:31;;;;;;;5.00;2.40;;;;;;;6.10;100.00;98749.52;106184;1255;60427;-77
2023/11/29 09:27:58;;;;;;;3.60;2.60;;;;;;;6.11;100.00;98747.20;107392;1251;73813;-75
2023/11/29 09:30:26;;;;;;;3.50;2.30;;;;;;;6.13;100.00;98742.38;106504;1254;62647;-76
2023/11/29 09:32:54;;;;;;;3.50;2.10;;;;;;;6.15;100.00;98752.14;106019;1251;72666;-78
2023/11/29 09:35:22;;;;;;;4.10;2.80;;;;;;;6.18;100.00;98737.89;105989;1254;61362;-80
2023/11/29 09:37:49;;;;;;;4.40;2.50;;;;;;;6.22;100.00;98731.00;105926;1250;61401;-75
2023/11/29 09:40:17;;;;;;;2.80;1.90;;;;;;;6.27;100.00;98731.84;106014;1253;73707;-75
2023/11/29 09:42:44;;;;;;;4.10;2.30;;;;;;;6.33;100.00;98727.39;105907;1254;64798;-79
2023/11/29 09:45:11;;;;;;;2.10;1.90;;;;;;;6.38;100.00;98723.21;105947;1250;73942;-77
2023/11/29 09:47:38;;;;;;;2.00;1.50;;;;;;;6.43;100.00;98721.44;105701;1258;60874;-81
2023/11/29 09:50:06;;;;;;;3.70;1.80;;;;;;;6.48;100.00;98718.52;106002;1251;60533;-77
2023/11/29 09:52:35;;;;;;;1.90;1.40;;;;;;;6.51;100.00;98716.67;106130;1251;73747;-78
2023/11/29 09:55:03;;;;;;;2.30;1.60;;;;;;;6.55;100.00;98706.33;106006;1254;63733;-78
2023/11/29 09:57:31;;;;;;;3.30;2.20;;;;;;;6.58;100.00;98706.80;105968;1251;75475;-77
2023/11/29 09:59:58;;;;;;;4.50;3.20;;;;;;;6.62;100.00;98716.77;106021;1254;61704;-77
2023/11/29 10:02:25;;;;;;;4.30;2.50;;;;;;;6.67;100.00;98712.26;105868;1254;60527;-79
2023/11/29 10:04:51;;;;;;;1.90;1.40;;;;;;;6.72;100.00;98715.52;106112;1251;73632;-78
2023/11/29 10:07:21;;;;;;;1.40;1.10;;;;;;;6.78;100.00;98720.60;105920;1254;63856;-74
2023/11/29 10:09:48;;;;;;;1.40;1.30;;;;;;;6.84;100.00;98721.04;106056;1251;72701;-79
2023/11/29 10:12:15;;;;;;;1.70;1.60;;;;;;;6.90;100.00;98723.75;105897;1254;62211;-81
2023/11/29 10:14:42;;;;;;;3.40;2.30;;;;;;;6.94;100.00;98731.08;105840;1251;61279;-76
2023/11/29 10:17:13;;;;;;;3.90;3.30;;;;;;;6.98;100.00;98733.58;105839;1251;73929;-78
2023/11/29 10:19:49;;;;;;;4.60;3.90;;;;;;;7.00;100.00;98739.95;105854;1254;62964;-78
2023/11/29 10:22:16;;;;;;;7.20;4.90;;;;;;;7.04;100.00;98739.13;105899;1251;72022;-77
2023/11/29 10:24:45;;;;;;;7.10;5.60;;;;;;;7.10;100.00;98739.43;105901;1254;60977;-77
2023/11/29 10:27:13;;;;;;;5.30;3.60;;;;;;;7.15;100.00;98740.08;105941;1251;60405;-76
2023/11/29 10:29:40;;;;;;;8.80;6.40;;;;;;;7.21;100.00;98744.65;105974;1250;74862;-78
2023/11/29 10:32:08;;;;;;;9.90;6.10;;;;;;;7.30;100.00;98746.05;105771;1251;64067;-77
2023/11/29 10:34:35;;;;;;;12.90;6.10;;;;;;;7.38;100.00;98750.13;105969;1251;72615;-78
2023/11/29 10:37:05;;;;;;;9.70;6.10;;;;;;;7.47;100.00;98749.39;105709;1253;60555;-79
2023/11/29 10:39:33;;;;;;;11.40;6.80;;;;;;;7.59;100.00;98757.35;105961;1251;60485;-79
2023/11/29 10:42:01;;;;;;;10.10;6.50;;;;;;;7.70;100.00;98754.30;105891;1251;73950;-78
2023/11/29 10:44:35;;;;;;;12.20;8.20;;;;;;;7.79;100.00;98759.13;106064;1254;63931;-78
2023/11/29 10:47:17;;;;;;;13.20;7.40;;;;;;;7.88;100.00;98759.61;105932;1254;71177;-78
2023/11/29 10:49:48;;;;;;;11.80;7.60;;;;;;;7.97;100.00;98767.80;105884;1251;60629;-77
2023/11/29 10:52:17;;;;;;;11.10;7.40;;;;;;;8.04;100.00;98769.34;105856;1251;61448;-79
2023/11/29 10:54:47;;;;;;;9.70;6.40;;;;;;;8.11;100.00;98765.29;105861;1252;73916;-78
2023/11/29 10:57:23;;;;;;;8.20;7.10;;;;;;;8.19;100.00;98768.33;105795;1251;62294;-79
2023/11/29 11:00:01;;;;;;;9.30;6.50;;;;;;;8.27;100.00;98769.77;105935;1254;73614;-77
2023/11/29 11:02:29;;;;;;;9.30;5.90;;;;;;;8.34;100.00;98770.61;105935;1251;60518;-78
2023/11/29 11:05:08;;;;;;;11.80;6.60;;;;;;;8.40;100.00;98771.02;105877;1251;61166;-79
2023/11/29 11:07:41;;;;;;;11.30;6.40;;;;;;;8.45;100.00;98777.21;105976;1251;74173;-79
2023/11/29 11:10:16;;;;;;;11.90;6.20;;;;;;;8.52;100.00;98773.02;106057;1254;64048;-78
2023/11/29 11:12:44;;;;;;;9.30;5.60;;;;;;;8.59;100.00;98776.25;105823;1254;72612;-77
2023/11/29 11:15:15;;;;;;;7.30;5.30;;;;;;;8.65;100.00;98784.15;105880;1253;60348;-77
2023/11/29 11:17:43;;;;;;;11.40;4.80;;;;;;;8.68;100.00;98788.23;106118;1251;62306;-78
2023/11/29 11:20:12;;;;;;;9.20;4.70;;;;;;;8.70;100.00;98791.95;106024;1251;75008;-77
2023/11/29 11:22:42;;;;;;;10.00;5.70;;;;;;;8.72;100.00;98795.95;105853;1253;64183;-77
2023/11/29 11:25:18;;;;;;;8.00;6.20;;;;;;;8.74;100.00;98799.98;106026;1251;72803;-78
2023/11/29 11:27:48;;;;;;;9.90;6.40;;;;;;;8.75;100.00;98803.39;105892;1250;61530;-75